^^
Meteo Knjazevac Station Historical Data
Daily Summary for February 17, 2021 Units:  English    Metric   Both
Daily Weekly Monthly Yearly Custom
  High: Low: Average:
Temperature: 62.6 °F 52.2 °F 57.2 °F
Dew Point: 58.8 °F 50 °F 54.4 °F
Humidity: 96% 83% 90%
Wind Speed: 5mph 0mph 1.5mph
Wind Gust: 8mph - -
Wind- - SSW
Pressure: 29.88 in 29.82 in -
Precipitation: 0.04 in    
Historical Graphs
 
 
Tabular Data for February 17, 2021
Time Temperature Dew Point Pressure Wind Wind Speed Wind Gust Humidity Rainfall Rate (Hourly) solar Conditions
00:00 57 °F 54.4 °F 29.88 in NW 1 mph 2 mph 91% 0.00 in 0 W/m2
00:10 56.8 °F 54.5 °F 29.88 in Calm   2 mph 92% 0.00 in 0 W/m2
00:20 56.7 °F 54.1 °F 29.88 in NNE 1 mph 3 mph 91% 0.00 in 0 W/m2
00:30 56.5 °F 53.9 °F 29.88 in Calm   3 mph 91% 0.00 in 0 W/m2
00:40 56.1 °F 53.6 °F 29.88 in Calm   2 mph 91% 0.00 in 0 W/m2
00:50 55.9 °F 53.9 °F 29.88 in NNW 1 mph 2 mph 93% 0.00 in 0 W/m2
01:00 55.8 °F 53.8 °F 29.87 in Calm   2 mph 93% 0.00 in 0 W/m2
01:10 55.6 °F 53.9 °F 29.87 in Calm   2 mph 94% 0.00 in 0 W/m2
01:20 55.8 °F 53.8 °F 29.87 in SE 3 mph 6 mph 93% 0.00 in 0 W/m2
01:30 55.8 °F 53.8 °F 29.86 in South 1 mph 5 mph 93% 0.00 in 0 W/m2
01:40 55.4 °F 53.4 °F 29.86 in SW 2 mph 6 mph 93% 0.00 in 0 W/m2
01:50 55.4 °F 53.4 °F 29.86 in Calm   5 mph 93% 0.00 in 0 W/m2
02:00 55.4 °F 53.4 °F 29.86 in Calm   2 mph 93% 0.00 in 0 W/m2
02:10 55.6 °F 53.6 °F 29.85 in ENE 1 mph 3 mph 93% 0.00 in 0 W/m2
02:20 55.8 °F 53.2 °F 29.86 in SE 2 mph 5 mph 91% 0.00 in 0 W/m2
02:30 55.8 °F 53.2 °F 29.85 in South 1 mph 5 mph 91% 0.00 in 0 W/m2
02:40 55.6 °F 53 °F 29.85 in Calm   5 mph 91% 0.00 in 0 W/m2
02:50 55.6 °F 53 °F 29.86 in ENE 1 mph 4 mph 91% 0.00 in 0 W/m2
03:00 55.4 °F 52.8 °F 29.85 in Calm   5 mph 91% 0.00 in 0 W/m2
03:10 55.2 °F 52.6 °F 29.85 in Calm   3 mph 91% 0.00 in 0 W/m2
03:20 55 °F 52.5 °F 29.85 in East 1 mph 4 mph 91% 0.00 in 0 W/m2
03:30 54.9 °F 52.3 °F 29.85 in SE 2 mph 8 mph 91% 0.00 in 0 W/m2
03:40 54.9 °F 52.3 °F 29.85 in SSE 3 mph 7 mph 91% 0.00 in 0 W/m2
03:50 54.9 °F 52.3 °F 29.85 in SE 3 mph 8 mph 91% 0.00 in 0 W/m2
04:00 54.7 °F 52.1 °F 29.85 in SE 1 mph 6 mph 91% 0.00 in 0 W/m2
04:10 54.5 °F 51.9 °F 29.85 in ESE 3 mph 6 mph 91% 0.00 in 0 W/m2
04:20 54.3 °F 51.7 °F 29.84 in ESE 2 mph 8 mph 91% 0.00 in 0 W/m2
04:30 54.1 °F 51.6 °F 29.84 in SSE 3 mph 8 mph 91% 0.00 in 0 W/m2
04:40 54 °F 51.4 °F 29.85 in NE 2 mph 4 mph 91% 0.00 in 0 W/m2
04:50 53.6 °F 51 °F 29.84 in ESE 1 mph 5 mph 91% 0.00 in 0 W/m2
05:00 53.4 °F 50.9 °F 29.84 in NNW 1 mph 2 mph 91% 0.00 in 0 W/m2
05:10 53.4 °F 51.4 °F 29.84 in East 1 mph 3 mph 93% 0.00 in 5 W/m2
05:20 52.9 °F 50.3 °F 29.85 in Calm   3 mph 91% 0.00 in 13 W/m2
05:30 52.5 °F 50 °F 29.85 in NW 1 mph 3 mph 91% 0.00 in 31 W/m2
05:40 52.3 °F 50.7 °F 29.85 in Calm   4 mph 94% 0.00 in 46 W/m2
05:50 52.3 °F 50.7 °F 29.85 in Calm   3 mph 94% 0.00 in 54 W/m2
06:00 52.2 °F 50.5 °F 29.85 in West 1 mph 3 mph 94% 0.00 in 56 W/m2
06:10 52.3 °F 51 °F 29.84 in Calm   2 mph 95% 0.00 in 78 W/m2
06:20 52.9 °F 51.8 °F 29.84 in Calm   2 mph 96% 0.00 in 118 W/m2
06:30 53.4 °F 52.3 °F 29.84 in NNE 1 mph 4 mph 96% 0.00 in 120 W/m2
06:40 54 °F 52.8 °F 29.84 in North 1 mph 3 mph 96% 0.00 in 193 W/m2
06:50 55 °F 53.6 °F 29.85 in South 1 mph 5 mph 95% 0.00 in 196 W/m2
07:00 55.6 °F 53.9 °F 29.85 in West 2 mph 5 mph 94% 0.00 in 112 W/m2
07:10 56.3 °F 54.3 °F 29.85 in SE 3 mph 6 mph 93% 0.00 in 92 W/m2
07:20 56.8 °F 54.2 °F 29.85 in SE 2 mph 6 mph 91% 0.00 in 98 W/m2
07:30 56.8 °F 54.8 °F 29.85 in SSW 1 mph 4 mph 93% 0.00 in 110 W/m2
07:40 57.2 °F 55.5 °F 29.85 in SW 1 mph 3 mph 94% 0.00 in 143 W/m2
07:50 57.6 °F 55.8 °F 29.84 in WSW 1 mph 2 mph 94% 0.00 in 139 W/m2
08:00 57.7 °F 55.7 °F 29.84 in WNW 1 mph 2 mph 93% 0.00 in 100 W/m2
08:10 58.1 °F 56.1 °F 29.84 in WSW 1 mph 2 mph 93% 0.00 in 116 W/m2
08:20 58.3 °F 56.3 °F 29.84 in West 1 mph 2 mph 93% 0.00 in 218 W/m2
08:30 58.8 °F 56.2 °F 29.84 in Calm   3 mph 91% 0.00 in 184 W/m2
08:40 59.2 °F 56.6 °F 29.84 in West 1 mph 2 mph 91% 0.00 in 176 W/m2
08:50 59.7 °F 57.1 °F 29.84 in WSW 1 mph 2 mph 91% 0.00 in 210 W/m2
09:00 60.3 °F 58.2 °F 29.85 in Calm   2 mph 93% 0.00 in 223 W/m2
09:10 60.6 °F 57.7 °F 29.85 in West 1 mph 5 mph 90% 0.00 in 150 W/m2
09:30 60.4 °F 55.6 °F 29.85 in SW 5 mph 8 mph 84% 0.00 in 165 W/m2
09:40 60.4 °F 55.9 °F 29.85 in SW 3 mph 8 mph 85% 0.00 in 248 W/m2
09:50 60.6 °F 56.1 °F 29.84 in SSW 3 mph 7 mph 85% 0.00 in 170 W/m2
10:00 60.4 °F 55.9 °F 29.84 in SW 5 mph 8 mph 85% 0.00 in 109 W/m2
10:10 60.4 °F 55.9 °F 29.84 in SW 5 mph 7 mph 85% 0.00 in 90 W/m2
10:20 60.3 °F 55.7 °F 29.84 in SW 2 mph 6 mph 85% 0.00 in 111 W/m2
10:30 60.3 °F 56.1 °F 29.83 in SW 3 mph 6 mph 86% 0.00 in 196 W/m2
10:40 60.4 °F 56.9 °F 29.83 in WSW 2 mph 5 mph 88% 0.00 in 227 W/m2
10:50 61 °F 57.4 °F 29.83 in SW 2 mph 4 mph 88% 0.00 in 378 W/m2
11:00 61.9 °F 57.7 °F 29.83 in SW 2 mph 6 mph 86% 0.00 in 405 W/m2
11:10 62.4 °F 57.5 °F 29.83 in SW 3 mph 6 mph 84% 0.00 in 274 W/m2
11:20 62.4 °F 57.8 °F 29.83 in WSW 2 mph 6 mph 85% 0.00 in 202 W/m2
11:30 62.4 °F 57.5 °F 29.83 in WNW 2 mph 6 mph 84% 0.00 in 183 W/m2
11:40 62.6 °F 57.7 °F 29.83 in WSW 2 mph 7 mph 84% 0.00 in 177 W/m2
11:50 62.6 °F 57.7 °F 29.83 in WSW 3 mph 5 mph 84% 0.00 in 92 W/m2
12:00 62.4 °F 57.2 °F 29.83 in WSW 5 mph 7 mph 83% 0.00 in 58 W/m2
12:10 62.1 °F 56.8 °F 29.84 in SW 3 mph 6 mph 83% 0.00 in 103 W/m2
12:20 61.9 °F 57.3 °F 29.83 in SW 2 mph 8 mph 85% 0.01 in 244 W/m2
12:30 62.1 °F 58.8 °F 29.83 in SSW 2 mph 5 mph 89% 0.00 in 291 W/m2
12:40 62.2 °F 58.6 °F 29.83 in SW 2 mph 5 mph 88% 0.00 in 289 W/m2
12:50 62.4 °F 58.8 °F 29.82 in SW 2 mph 5 mph 88% 0.00 in 291 W/m2
Knjazevac, Serbia
Compliments of Weather Underground - 2 mb